Etihad Airways Virtual Airport Information Service

Jeddah King Abdulaziz International Airport

ICAO: OEJN Country: Saudi Arabia
Latitude: 21.6796 Longitude: 39.1565
Latest Arrival : ETD333 (OMAA-OEJN) Latest Departure : ETD334 (OEJN-OMAA)


WX CaptureLIVE
Data provided by noaa.gov | Recorded at 05:20:26

METAR : OEJN 190500Z 30004KT 9999 SCT040 24/16 Q1014 NOSIG

TAF :


Runway Data for OEJN
Data provided by openaviationdata.com

Runway ID Mag Var Hdg Length Elevation Surface ILS Freq ILS Id ILS Slope

Jeddah King Abdulaziz International Airport, Saudi Arabia
Use only for reference purposes